Time;durP1;ratioP1;P1;durP2;ratioP2;P2;SDS_P1;SDS_P2;PMS_P1;PMS_P2;Temp;Humidity;BMP_temperature;BMP_pressure;BME280_temperature;BME280_humidity;BME280_pressure;Samples;Min_cycle;Max_cycle;Signal;HPM_P1;HPM_P2
2023/10/18 00:01:01;;;;;;;4.05;1.70;;;;;;;19.32;45.23;101189.94;4997610;28;20102;-63
2023/10/18 00:03:29;;;;;;;4.85;1.73;;;;;;;19.31;45.23;101183.81;4997914;28;20065;-64
2023/10/18 00:05:55;;;;;;;6.45;1.90;;;;;;;19.29;45.00;101176.97;4997989;28;20034;-66
2023/10/18 00:08:23;;;;;;;3.53;1.67;;;;;;;19.30;45.13;101181.28;4998112;28;20029;-63
2023/10/18 00:10:53;;;;;;;4.50;1.70;;;;;;;19.29;44.99;101180.44;4998213;28;20041;-63
2023/10/18 00:13:22;;;;;;;5.25;2.03;;;;;;;19.27;45.23;101179.72;4998402;28;20030;-63
2023/10/18 00:15:52;;;;;;;4.65;2.03;;;;;;;19.28;45.05;101172.63;4997600;28;20653;-63
2023/10/18 00:18:18;;;;;;;4.72;2.00;;;;;;;19.27;45.33;101173.63;4997703;28;20391;-63
2023/10/18 00:20:43;;;;;;;3.90;1.80;;;;;;;19.28;45.16;101173.50;4997543;28;20044;-64
2023/10/18 00:23:10;;;;;;;4.20;1.92;;;;;;;19.27;45.13;101179.72;4997542;28;20363;-64
2023/10/18 00:25:36;;;;;;;4.30;1.90;;;;;;;19.26;45.07;101171.94;4997907;28;20033;-62
2023/10/18 00:28:03;;;;;;;5.70;2.00;;;;;;;19.25;44.92;101164.94;4997866;28;20528;-65
2023/10/18 00:30:30;;;;;;;4.25;1.80;;;;;;;19.24;45.05;101171.22;4998200;28;20544;-63
2023/10/18 00:32:55;;;;;;;4.57;2.03;;;;;;;19.24;45.00;101168.56;4998053;28;20046;-62
2023/10/18 00:35:20;;;;;;;4.32;2.00;;;;;;;19.24;44.96;101168.56;4997139;28;20680;-64
2023/10/18 00:37:47;;;;;;;3.90;1.90;;;;;;;19.22;45.02;101168.69;4998191;28;20038;-65
2023/10/18 00:40:49;;;;;;;4.18;2.25;;;;;;;19.24;44.89;101174.69;4997611;28;20466;-64
2023/10/18 00:43:15;;;;;;;4.50;2.03;;;;;;;19.21;44.79;101167.00;5000368;28;20488;-64
2023/10/18 00:45:44;;;;;;;4.53;1.70;;;;;;;19.21;45.11;101170.47;4997940;28;20033;-64
2023/10/18 00:48:11;;;;;;;4.13;2.00;;;;;;;19.19;44.85;101164.50;4998017;28;20034;-64
2023/10/18 00:50:39;;;;;;;5.60;2.00;;;;;;;19.19;44.77;101164.50;4997529;28;20117;-63
2023/10/18 00:53:06;;;;;;;3.72;2.00;;;;;;;19.20;44.84;101162.69;4997169;28;20034;-63
2023/10/18 00:55:31;;;;;;;3.97;1.80;;;;;;;19.18;44.72;101152.25;4997355;28;20474;-64
2023/10/18 00:57:58;;;;;;;4.30;1.95;;;;;;;19.20;44.52;101154.75;4996934;28;20034;-64
2023/10/18 01:00:24;;;;;;;3.55;1.70;;;;;;;19.19;44.88;101145.16;4997061;28;21062;-64
2023/10/18 01:02:52;;;;;;;3.25;1.67;;;;;;;19.19;44.71;101139.88;4997068;28;20117;-62
2023/10/18 01:05:17;;;;;;;3.97;1.83;;;;;;;19.17;44.63;101136.53;4997295;28;20040;-65
2023/10/18 01:07:46;;;;;;;4.20;2.15;;;;;;;19.15;44.84;101123.44;4997308;28;20057;-65
2023/10/18 01:10:12;;;;;;;3.65;2.00;;;;;;;19.16;44.62;101129.56;4996757;28;20116;-62
2023/10/18 01:12:38;;;;;;;3.40;1.60;;;;;;;19.17;44.74;101128.59;4997455;28;20034;-65
2023/10/18 01:15:06;;;;;;;4.15;2.05;;;;;;;19.15;44.37;101118.16;4997060;28;20034;-65
2023/10/18 01:17:34;;;;;;;3.75;1.80;;;;;;;19.15;44.29;101104.09;4997173;28;20058;-65
2023/10/18 01:19:59;;;;;;;3.90;1.98;;;;;;;19.12;44.75;101107.84;5028034;28;20034;-63
2023/10/18 01:22:25;;;;;;;3.50;1.73;;;;;;;19.12;44.20;101109.63;4996983;28;20041;-64
2023/10/18 01:24:50;;;;;;;3.50;1.67;;;;;;;19.13;44.86;101103.38;4997029;28;20045;-65
2023/10/18 01:27:17;;;;;;;4.25;1.77;;;;;;;19.12;44.59;101104.34;4997246;28;20267;-63
2023/10/18 01:29:43;;;;;;;5.50;2.28;;;;;;;19.10;44.73;101099.19;4997306;28;20112;-64
2023/10/18 01:32:09;;;;;;;4.53;1.77;;;;;;;19.10;44.48;101091.25;4996823;28;20044;-62
2023/10/18 01:34:36;;;;;;;4.93;2.10;;;;;;;19.09;44.38;101091.38;5028856;28;20030;-64
2023/10/18 01:37:02;;;;;;;3.97;1.85;;;;;;;19.07;44.57;101091.50;4996576;28;20038;-62
2023/10/18 01:39:31;;;;;;;4.97;2.30;;;;;;;19.09;44.68;101091.38;4996594;28;20034;-63
2023/10/18 01:42:00;;;;;;;4.10;2.00;;;;;;;19.08;44.41;101089.72;4996383;28;20196;-62
2023/10/18 01:44:45;;;;;;;4.70;2.00;;;;;;;19.09;44.25;101080.81;4996987;28;20391;-65
2023/10/18 01:47:12;;;;;;;4.70;2.08;;;;;;;19.07;44.37;101073.00;4996568;28;20030;-63
2023/10/18 01:49:40;;;;;;;4.03;1.83;;;;;;;19.07;44.46;101073.00;4996408;28;20410;-65
2023/10/18 01:52:08;;;;;;;4.18;1.98;;;;;;;19.03;44.56;101063.69;4996478;28;20034;-64
2023/10/18 01:54:33;;;;;;;4.82;2.00;;;;;;;19.07;44.20;101073.00;4996353;28;20026;-65
2023/10/18 01:57:00;;;;;;;4.22;1.70;;;;;;;19.06;44.26;101066.06;4996581;28;20471;-65
2023/10/18 01:59:27;;;;;;;3.30;1.80;;;;;;;19.03;44.38;101050.47;4996480;28;20038;-62
2023/10/18 02:01:53;;;;;;;3.70;1.73;;;;;;;19.05;44.31;101045.91;4996335;28;20395;-62
2023/10/18 02:04:26;;;;;;;4.07;1.98;;;;;;;19.05;44.35;101047.72;4996695;28;20036;-64
2023/10/18 02:06:57;;;;;;;4.00;1.77;;;;;;;19.02;44.25;101044.34;4996567;28;20035;-61
2023/10/18 02:09:23;;;;;;;5.10;1.98;;;;;;;19.01;44.23;101050.59;4996843;28;20109;-64
2023/10/18 02:11:48;;;;;;;4.55;2.10;;;;;;;19.01;44.22;101047.97;4999735;28;20489;-65
2023/10/18 02:14:14;;;;;;;4.07;1.83;;;;;;;18.99;44.32;101041.97;5000348;28;20023;-64
2023/10/18 02:16:41;;;;;;;5.05;2.00;;;;;;;19.01;44.29;101034.75;5000163;28;20044;-63
2023/10/18 02:19:08;;;;;;;3.78;1.92;;;;;;;19.00;43.93;101037.53;5000142;28;20522;-63
2023/10/18 02:21:34;;;;;;;4.38;1.92;;;;;;;18.99;44.06;101035.84;5000052;28;20045;-65
2023/10/18 02:24:00;;;;;;;3.92;1.92;;;;;;;18.97;44.14;101035.97;4999324;28;20773;-63
2023/10/18 02:28:54;;;;;;;5.10;1.88;;;;;;;18.99;44.20;101044.63;5000015;28;20406;-63
2023/10/18 02:31:22;;;;;;;3.70;2.10;;;;;;;19.00;44.01;101045.44;4999759;28;20034;-63
2023/10/18 02:33:53;;;;;;;4.10;2.00;;;;;;;18.99;44.08;101041.97;4999256;28;20057;-65
2023/10/18 02:36:32;;;;;;;3.80;1.90;;;;;;;18.99;43.98;101038.47;4999730;28;20118;-63
2023/10/18 02:38:58;;;;;;;4.30;2.03;;;;;;;18.99;44.25;101036.69;4999939;28;20038;-62
2023/10/18 02:41:29;;;;;;;3.88;2.13;;;;;;;19.01;44.05;101028.63;4999441;28;20077;-63
2023/10/18 02:43:57;;;;;;;4.15;1.80;;;;;;;19.00;43.93;101029.59;4999946;28;20446;-64
2023/10/18 02:46:24;;;;;;;4.53;2.08;;;;;;;18.98;44.15;101018.31;4999177;28;20041;-63
2023/10/18 02:48:56;;;;;;;4.13;1.80;;;;;;;18.96;44.01;101015.81;4999888;28;20065;-65
2023/10/18 02:51:24;;;;;;;3.88;1.90;;;;;;;18.96;43.98;101015.81;4999351;28;20511;-65
2023/10/18 02:53:54;;;;;;;4.65;2.42;;;;;;;18.95;44.12;101005.38;4999704;28;20410;-65
2023/10/18 02:56:32;;;;;;;3.90;1.80;;;;;;;18.95;44.10;101008.00;4999228;28;20058;-62
2023/10/18 02:59:06;;;;;;;3.65;1.83;;;;;;;18.95;43.95;101011.47;4999134;28;20455;-63
2023/10/18 03:01:32;;;;;;;3.85;2.03;;;;;;;18.94;44.06;101007.16;4999691;28;20045;-64
2023/10/18 03:03:57;;;;;;;3.80;1.98;;;;;;;18.92;43.66;100993.25;4999594;28;20038;-64
2023/10/18 03:06:27;;;;;;;4.18;1.92;;;;;;;18.91;43.85;100993.38;4998947;28;20036;-62
2023/10/18 03:08:57;;;;;;;4.78;2.13;;;;;;;18.93;43.88;100996.72;4999065;28;20040;-63
2023/10/18 03:11:22;;;;;;;4.68;2.00;;;;;;;18.91;44.03;100990.72;4998700;28;20040;-64
2023/10/18 03:13:48;;;;;;;4.03;1.88;;;;;;;18.91;43.81;100988.09;4999005;28;20035;-62
2023/10/18 03:18:43;;;;;;;3.75;1.70;;;;;;;18.89;43.79;100982.94;4998737;28;20041;-63
2023/10/18 03:21:09;;;;;;;3.35;1.77;;;;;;;18.89;43.89;100968.91;4998754;28;20042;-62
2023/10/18 03:23:44;;;;;;;4.15;1.90;;;;;;;18.89;43.77;100977.66;4998497;28;20034;-63
2023/10/18 03:26:11;;;;;;;3.88;1.90;;;;;;;18.88;43.78;100981.25;4997457;28;20030;-61
2023/10/18 03:28:40;;;;;;;4.03;1.90;;;;;;;18.87;44.12;100974.31;4998975;28;20030;-63
2023/10/18 03:31:23;;;;;;;4.05;2.13;;;;;;;18.87;43.94;100973.44;4997925;28;20502;-63
2023/10/18 03:33:52;;;;;;;3.72;1.90;;;;;;;18.85;43.69;100966.50;4998776;28;20096;-65
2023/10/18 03:36:20;;;;;;;4.00;2.00;;;;;;;18.84;43.79;100964.81;4998248;28;20390;-66
2023/10/18 03:38:55;;;;;;;3.85;1.83;;;;;;;18.85;43.74;100960.41;4998514;28;20082;-62
2023/10/18 03:41:25;;;;;;;3.70;1.80;;;;;;;18.84;43.67;100953.44;4998945;28;20117;-65
2023/10/18 03:43:58;;;;;;;4.60;2.30;;;;;;;18.82;43.78;100942.13;4998965;28;20108;-62
2023/10/18 03:46:38;;;;;;;5.30;2.10;;;;;;;18.82;43.67;100937.69;4998703;28;20026;-63
2023/10/18 03:49:08;;;;;;;4.43;2.08;;;;;;;18.83;43.64;100928.81;4998083;28;20025;-65
2023/10/18 03:51:33;;;;;;;6.40;2.03;;;;;;;18.81;43.65;100929.88;4998811;28;20038;-63
2023/10/18 03:54:00;;;;;;;5.18;2.20;;;;;;;18.80;43.87;100921.13;4998231;28;20114;-63
2023/10/18 03:56:26;;;;;;;3.55;1.75;;;;;;;18.81;43.84;100924.59;4997630;28;20026;-63
2023/10/18 03:59:00;;;;;;;4.28;1.80;;;;;;;18.80;43.67;100917.63;4997985;28;20096;-64
2023/10/18 04:01:39;;;;;;;3.80;1.98;;;;;;;18.80;43.64;100915.00;4997898;28;20109;-62
2023/10/18 04:04:05;;;;;;;3.72;1.80;;;;;;;18.80;43.69;100921.13;4998425;28;20037;-64
2023/10/18 04:06:35;;;;;;;4.25;2.10;;;;;;;18.81;43.54;100912.22;4997748;28;20030;-63
2023/10/18 04:09:13;;;;;;;4.30;2.17;;;;;;;18.80;43.83;100913.22;4997986;28;20065;-63
2023/10/18 04:11:38;;;;;;;4.03;1.75;;;;;;;18.81;43.66;100912.22;4997593;28;20422;-65
2023/10/18 04:14:03;;;;;;;4.30;1.90;;;;;;;18.81;43.49;100914.06;4997971;28;20053;-64
2023/10/18 04:16:30;;;;;;;5.88;2.20;;;;;;;18.80;43.47;100905.31;4998489;28;21229;-63
2023/10/18 04:18:56;;;;;;;4.30;1.88;;;;;;;18.80;43.59;100904.44;4998167;28;20033;-64
2023/10/18 04:21:25;;;;;;;5.15;2.00;;;;;;;18.80;43.68;100891.25;4998257;28;20486;-64
2023/10/18 04:23:56;;;;;;;4.80;2.10;;;;;;;18.79;43.47;100893.06;4997963;28;20022;-65
2023/10/18 04:26:25;;;;;;;3.55;1.70;;;;;;;18.79;43.68;100884.31;4995597;28;20088;-63
2023/10/18 04:28:54;;;;;;;5.78;2.58;;;;;;;18.76;43.66;100881.91;4997490;28;20041;-64
2023/10/18 04:31:21;;;;;;;3.70;1.80;;;;;;;18.78;43.55;100886.09;4997186;28;20036;-64
2023/10/18 04:33:50;;;;;;;3.83;1.80;;;;;;;18.77;43.65;100879.16;4996950;28;20480;-62
2023/10/18 04:36:16;;;;;;;4.68;1.88;;;;;;;18.78;43.47;100872.06;4997598;28;20061;-63
2023/10/18 04:38:43;;;;;;;4.32;2.10;;;;;;;18.76;43.38;100869.53;4996703;28;20463;-65
2023/10/18 04:41:10;;;;;;;4.97;2.20;;;;;;;18.75;43.59;100869.66;4997378;28;20137;-65
2023/10/18 04:43:37;;;;;;;4.50;2.00;;;;;;;18.74;43.69;100879.41;4997309;28;20040;-65
2023/10/18 04:49:38;;;;;;;4.22;2.03;;;;;;;18.75;43.63;100873.13;4997751;28;20033;-65
2023/10/18 04:54:03;;;;;;;3.58;1.70;;;;;;;18.75;43.61;100867.84;4997083;28;20064;-64
2023/10/18 04:56:34;;;;;;;4.50;1.98;;;;;;;18.76;43.38;100858.16;4996510;28;20407;-62
2023/10/18 04:59:26;;;;;;;4.65;2.13;;;;;;;18.74;43.48;100855.66;4997278;28;20503;-62
2023/10/18 05:06:56;;;;;;;4.20;2.05;;;;;;;18.73;43.46;100848.69;4996679;28;20040;-62
2023/10/18 05:14:44;;;;;;;3.40;1.60;;;;;;;18.80;43.62;100834.00;4997249;28;20049;-64
2023/10/18 05:17:17;;;;;;;4.05;1.70;;;;;;;18.80;43.80;100828.72;4995317;28;20037;-63
2023/10/18 05:19:43;;;;;;;4.85;1.88;;;;;;;18.81;43.59;100829.56;4996725;28;20495;-66
2023/10/18 05:22:13;;;;;;;4.88;2.00;;;;;;;18.80;43.90;100817.31;4995613;28;20109;-64
2023/10/18 05:24:40;;;;;;;3.60;1.83;;;;;;;18.82;44.06;100825.97;4996404;28;20521;-66
2023/10/18 05:27:19;;;;;;;3.80;1.63;;;;;;;18.83;44.20;100819.69;4995887;28;20134;-61
2023/10/18 05:29:51;;;;;;;4.03;1.88;;;;;;;18.87;44.13;100818.50;4996440;28;20042;-64
2023/10/18 05:35:19;;;;;;;4.45;1.73;;;;;;;18.89;44.40;100813.94;4996791;28;20464;-66
2023/10/18 05:37:50;;;;;;;4.20;1.87;;;;;;;18.92;44.67;100807.56;4996705;28;20038;-64
2023/10/18 05:43:03;;;;;;;5.07;1.60;;;;;;;18.91;44.64;100817.28;4996876;28;20128;-67
2023/10/18 05:45:31;;;;;;;5.20;1.83;;;;;;;18.92;44.66;100812.84;4997518;28;20428;-66
2023/10/18 05:47:58;;;;;;;4.13;1.70;;;;;;;18.93;44.55;100803.94;5000581;28;20423;-63
2023/10/18 05:50:24;;;;;;;3.33;1.70;;;;;;;18.95;44.51;100810.78;5000609;28;20034;-65
2023/10/18 05:52:57;;;;;;;3.90;1.80;;;;;;;18.95;44.42;100810.78;5000770;28;20026;-65
2023/10/18 05:55:23;;;;;;;5.18;1.60;;;;;;;18.98;44.35;100807.03;5000579;28;20034;-64
2023/10/18 05:57:50;;;;;;;4.93;1.70;;;;;;;19.01;44.56;100806.78;5000126;28;20034;-66
2023/10/18 06:00:18;;;;;;;4.53;1.60;;;;;;;19.03;44.43;100803.03;4999055;28;20061;-67
2023/10/18 06:02:45;;;;;;;4.30;1.75;;;;;;;19.03;44.65;100802.19;5000501;28;20467;-66
2023/10/18 06:05:11;;;;;;;5.53;1.67;;;;;;;19.05;44.78;100802.06;5000247;28;20068;-65
2023/10/18 06:07:36;;;;;;;5.38;1.88;;;;;;;19.07;45.08;100798.31;5000200;28;20050;-65
2023/10/18 06:10:13;;;;;;;3.47;1.73;;;;;;;19.08;45.29;100801.81;4999425;28;20038;-64
2023/10/18 06:12:48;;;;;;;3.75;1.60;;;;;;;19.11;45.28;100791.81;4999982;28;20053;-64
2023/10/18 06:15:14;;;;;;;4.47;1.73;;;;;;;19.11;45.10;100783.06;5000184;28;20042;-64
2023/10/18 06:20:27;;;;;;;4.03;1.60;;;;;;;19.14;45.29;100766.94;4999985;28;20391;-64
2023/10/18 06:25:44;;;;;;;4.00;1.92;;;;;;;19.19;44.90;100768.19;4999991;28;20679;-64
2023/10/18 06:28:10;;;;;;;4.85;2.03;;;;;;;19.19;45.21;100764.72;4999861;28;20165;-66
2023/10/18 06:30:42;;;;;;;5.20;2.00;;;;;;;19.17;45.65;100764.03;4999692;28;20146;-65
2023/10/18 06:33:12;;;;;;;4.38;1.83;;;;;;;19.19;45.64;100765.56;4999652;28;20053;-64
2023/10/18 06:35:53;;;;;;;6.38;1.77;;;;;;;19.20;45.37;100755.81;4999354;28;20072;-65
2023/10/18 06:38:22;;;;;;;5.10;2.08;;;;;;;19.20;44.97;100751.38;4999944;28;20037;-65
2023/10/18 06:40:53;;;;;;;4.65;1.80;;;;;;;19.21;45.29;100750.41;4999682;28;20045;-64
2023/10/18 06:43:20;;;;;;;5.28;1.90;;;;;;;19.21;44.96;100746.94;4998661;28;20037;-64
2023/10/18 06:45:48;;;;;;;4.00;1.83;;;;;;;19.22;45.06;100753.91;4999364;28;20030;-64
2023/10/18 06:48:17;;;;;;;5.45;2.20;;;;;;;19.26;44.69;100750.00;4998151;28;20034;-62
2023/10/18 06:50:46;;;;;;;4.38;1.70;;;;;;;19.27;44.76;100748.22;4999399;28;20499;-62
2023/10/18 06:53:12;;;;;;;4.93;1.85;;;;;;;19.28;44.58;100740.16;4999263;28;20030;-64
2023/10/18 07:01:08;;;;;;;5.70;1.90;;;;;;;19.29;44.21;100733.88;5012698;28;20038;-64
2023/10/18 07:03:33;;;;;;;3.88;1.95;;;;;;;19.30;44.17;100732.91;4999080;28;20526;-65
2023/10/18 07:06:04;;;;;;;7.63;1.90;;;;;;;19.29;44.37;100725.94;4998845;28;20125;-62
2023/10/18 07:08:32;;;;;;;6.00;2.00;;;;;;;19.28;44.14;100724.28;4999273;28;20112;-65
2023/10/18 07:11:01;;;;;;;6.57;1.92;;;;;;;19.30;44.01;100730.28;5029786;28;20430;-64
2023/10/18 07:13:33;;;;;;;5.45;2.10;;;;;;;19.29;44.28;100727.75;4998699;28;20031;-63
2023/10/18 07:16:05;;;;;;;6.00;2.30;;;;;;;19.26;44.53;100720.09;4998789;28;20057;-63
2023/10/18 07:18:33;;;;;;;5.32;2.15;;;;;;;19.26;44.62;100715.66;4998750;28;20034;-69
2023/10/18 07:21:05;;;;;;;5.03;2.03;;;;;;;19.26;44.45;100715.66;4998431;28;20030;-63
2023/10/18 07:23:30;;;;;;;7.07;1.92;;;;;;;19.28;44.25;100710.22;4998620;28;20034;-63
2023/10/18 07:25:56;;;;;;;5.38;1.88;;;;;;;19.27;44.40;100705.94;4998711;28;20084;-66
2023/10/18 07:28:21;;;;;;;5.65;1.83;;;;;;;19.27;44.52;100704.13;4996311;28;20128;-64
2023/10/18 07:30:48;;;;;;;4.68;1.80;;;;;;;19.28;44.43;100702.31;4998169;28;20034;-64
2023/10/18 07:33:15;;;;;;;8.27;2.08;;;;;;;19.27;44.56;100696.19;4993622;28;20053;-64
2023/10/18 07:35:44;;;;;;;5.13;2.13;;;;;;;19.24;44.38;100704.38;4997391;28;20030;-61
2023/10/18 07:38:09;;;;;;;7.47;2.00;;;;;;;19.15;44.57;100698.13;5012801;28;20037;-64
2023/10/18 07:40:40;;;;;;;4.60;1.80;;;;;;;19.11;44.80;100695.88;5004493;28;20081;-64
2023/10/18 07:43:07;;;;;;;4.05;1.70;;;;;;;19.10;44.81;100695.03;4998519;28;20136;-63
2023/10/18 07:45:33;;;;;;;5.30;1.80;;;;;;;19.17;44.75;100684.78;4998075;28;20042;-65
2023/10/18 07:47:58;;;;;;;4.57;1.92;;;;;;;19.14;44.57;100682.41;4997810;28;20033;-63
2023/10/18 07:50:41;;;;;;;6.32;1.65;;;;;;;19.07;44.76;100678.63;4997986;28;20097;-64
2023/10/18 07:53:07;;;;;;;7.70;2.22;;;;;;;19.05;44.96;100672.66;4998083;28;20061;-63
2023/10/18 07:55:41;;;;;;;5.10;2.15;;;;;;;19.04;44.96;100677.06;4997682;28;20070;-64
2023/10/18 07:58:17;;;;;;;6.28;1.98;;;;;;;19.00;44.89;100665.13;4997309;28;20030;-64
2023/10/18 08:03:33;;;;;;;4.93;1.95;;;;;;;19.02;45.02;100668.47;4998242;28;20049;-65
2023/10/18 08:05:59;;;;;;;4.50;1.65;;;;;;;19.00;45.10;100665.94;4997541;28;20088;-64
2023/10/18 08:08:26;;;;;;;4.38;1.90;;;;;;;18.99;44.97;100656.38;4996663;28;20037;-65
2023/10/18 08:10:56;;;;;;;5.25;2.10;;;;;;;19.02;44.92;100673.75;4997437;28;21218;-63
2023/10/18 08:13:31;;;;;;;6.05;2.00;;;;;;;19.02;44.94;100663.19;4997714;28;20467;-62
2023/10/18 08:15:58;;;;;;;6.13;2.05;;;;;;;19.02;45.01;100658.72;4997498;28;20045;-63
2023/10/18 08:18:42;;;;;;;6.53;2.30;;;;;;;19.04;44.87;100655.94;4996816;28;20032;-61
2023/10/18 08:21:08;;;;;;;6.63;1.92;;;;;;;19.03;44.96;100660.41;4997071;28;20108;-62
2023/10/18 08:26:04;;;;;;;4.32;1.70;;;;;;;19.20;44.66;100644.84;4993004;28;20506;-64
2023/10/18 08:28:40;;;;;;;4.30;2.10;;;;;;;19.17;44.68;100637.22;4996488;28;20064;-63
2023/10/18 08:31:35;;;;;;;4.75;1.88;;;;;;;19.17;44.63;100637.22;4996556;28;20034;-62
2023/10/18 08:34:15;;;;;;;5.80;2.20;;;;;;;19.15;44.69;100637.38;4996010;28;20070;-62
2023/10/18 08:36:43;;;;;;;5.13;1.75;;;;;;;19.15;44.72;100626.81;4996296;28;20117;-63
2023/10/18 08:39:09;;;;;;;4.57;1.88;;;;;;;19.16;44.90;100625.81;4996528;28;20044;-63
2023/10/18 08:41:37;;;;;;;4.50;1.65;;;;;;;19.17;44.88;100627.50;4996571;28;20030;-61
2023/10/18 08:44:15;;;;;;;4.30;1.80;;;;;;;19.15;45.13;100626.81;4996776;28;20044;-63
2023/10/18 08:46:43;;;;;;;4.28;2.00;;;;;;;19.13;44.98;100623.44;4996346;28;20109;-62
2023/10/18 08:49:13;;;;;;;6.20;2.10;;;;;;;19.14;45.26;100619.84;4994114;28;20034;-63
2023/10/18 08:51:44;;;;;;;7.18;2.25;;;;;;;19.14;45.12;100619.84;4994284;28;20042;-61
2023/10/18 08:54:17;;;;;;;5.75;1.83;;;;;;;19.14;45.14;100616.38;4995763;28;20034;-61
2023/10/18 08:56:44;;;;;;;5.18;1.85;;;;;;;19.16;45.13;100612.59;4996045;28;20061;-61
2023/10/18 08:59:11;;;;;;;5.28;2.13;;;;;;;19.17;45.20;100613.47;4996045;28;20479;-62
2023/10/18 09:01:36;;;;;;;5.45;2.10;;;;;;;19.14;45.28;100600.53;4996128;28;20041;-63
2023/10/18 09:04:02;;;;;;;4.53;1.83;;;;;;;19.16;45.24;100604.69;4996518;28;20029;-63
2023/10/18 09:06:32;;;;;;;4.60;1.73;;;;;;;19.18;45.34;100607.19;4996412;28;20038;-62
2023/10/18 09:09:08;;;;;;;4.85;1.73;;;;;;;19.17;45.38;100593.16;4995899;28;20069;-62
2023/10/18 09:11:37;;;;;;;6.15;1.80;;;;;;;19.16;45.42;100596.75;4995719;28;20034;-63
2023/10/18 09:14:08;;;;;;;6.10;1.98;;;;;;;19.13;45.33;100583.00;4995582;28;20096;-62
2023/10/18 09:16:41;;;;;;;4.25;1.90;;;;;;;19.16;45.48;100577.44;4995977;28;20033;-62
2023/10/18 09:19:08;;;;;;;4.35;1.95;;;;;;;19.18;45.51;100570.19;4995173;28;20046;-60
2023/10/18 09:21:57;;;;;;;5.40;1.83;;;;;;;19.16;45.52;100575.63;4995704;28;20041;-60
2023/10/18 09:24:30;;;;;;;4.10;1.83;;;;;;;19.21;45.33;100568.09;4995327;28;20125;-61
2023/10/18 09:26:57;;;;;;;7.07;1.97;;;;;;;19.23;45.78;100556.56;4996181;28;20235;-63
2023/10/18 09:29:26;;;;;;;5.07;2.00;;;;;;;19.38;45.28;100571.88;4994304;28;20042;-66
2023/10/18 09:31:54;;;;;;;5.07;1.98;;;;;;;19.47;45.06;100570.22;5010298;28;20030;-64
2023/10/18 09:34:20;;;;;;;4.32;1.80;;;;;;;19.54;45.01;100568.66;4996572;28;20076;-66
2023/10/18 09:36:56;;;;;;;4.10;1.60;;;;;;;19.56;45.18;100561.41;4994562;28;20046;-66
2023/10/18 09:39:21;;;;;;;6.10;1.83;;;;;;;19.57;44.85;100555.16;4996710;28;20073;-67
2023/10/18 09:41:47;;;;;;;5.47;2.15;;;;;;;19.58;45.00;100540.13;4996060;28;20074;-65
2023/10/18 09:44:13;;;;;;;4.78;2.13;;;;;;;19.60;45.04;100537.34;4996473;28;20090;-66
2023/10/18 09:46:39;;;;;;;5.57;2.05;;;;;;;19.58;44.95;100524.28;4995727;28;20030;-66
2023/10/18 09:49:09;;;;;;;5.10;1.80;;;;;;;19.57;45.15;100531.38;4995672;28;20041;-66
2023/10/18 09:51:36;;;;;;;6.30;1.70;;;;;;;19.60;45.24;100519.69;4995948;28;20115;-67
2023/10/18 09:54:07;;;;;;;7.43;2.15;;;;;;;19.57;45.29;100512.88;4995593;28;20045;-66
2023/10/18 09:56:34;;;;;;;4.90;1.77;;;;;;;19.57;45.83;100504.94;4995911;28;20029;-66
2023/10/18 09:59:05;;;;;;;4.53;1.80;;;;;;;19.58;45.55;100508.41;4995880;28;20061;-65
2023/10/18 10:04:13;;;;;;;5.03;1.70;;;;;;;19.56;45.71;100494.50;4995666;28;20518;-66
2023/10/18 10:06:45;;;;;;;4.22;1.85;;;;;;;19.57;45.56;100491.72;4995870;28;20031;-68
2023/10/18 10:09:17;;;;;;;4.50;1.67;;;;;;;19.57;45.56;100488.25;4995739;28;20038;-69
2023/10/18 10:11:45;;;;;;;5.05;1.83;;;;;;;19.58;45.60;100489.91;4995862;28;20502;-70
2023/10/18 10:14:11;;;;;;;4.78;1.88;;;;;;;19.56;45.75;100479.47;4995753;28;20042;-68
2023/10/18 10:16:44;;;;;;;4.63;2.25;;;;;;;19.55;45.69;100474.34;4995982;28;20196;-66
2023/10/18 10:19:11;;;;;;;4.60;1.80;;;;;;;19.58;45.58;100476.69;4995924;28;21278;-69
2023/10/18 10:21:37;;;;;;;4.70;1.80;;;;;;;19.56;45.77;100460.97;4996338;28;20398;-69
2023/10/18 10:24:29;;;;;;;5.10;1.83;;;;;;;19.56;45.88;100460.97;4995679;28;20059;-68
2023/10/18 10:26:52;;;;;;;6.68;2.17;;;;;;;19.51;43.87;100455.28;4995396;28;20121;-69
2023/10/18 10:31:56;;;;;;;5.43;1.88;;;;;;;19.51;44.84;100457.13;4997935;28;20423;-69
2023/10/18 10:34:32;;;;;;;4.80;2.20;;;;;;;19.50;45.28;100435.16;4998379;28;20450;-68
2023/10/18 10:37:18;;;;;;;6.75;2.10;;;;;;;19.51;45.24;100438.63;4998963;28;20029;-69
2023/10/18 10:39:49;;;;;;;4.78;1.80;;;;;;;19.47;45.35;100426.66;4998632;28;20049;-69
2023/10/18 10:42:43;;;;;;;4.78;1.92;;;;;;;19.49;45.35;100427.38;4998288;28;20034;-69
2023/10/18 10:45:30;;;;;;;7.45;2.20;;;;;;;19.52;45.40;100427.91;5004771;28;20026;-68
2023/10/18 10:47:57;;;;;;;4.20;2.00;;;;;;;19.53;45.49;100418.16;4999799;28;20033;-68
2023/10/18 10:50:42;;;;;;;5.10;2.25;;;;;;;19.50;45.57;100419.28;4999557;28;20030;-69
2023/10/18 10:53:08;;;;;;;7.75;2.53;;;;;;;19.52;45.46;100408.56;4999042;28;20402;-69
2023/10/18 10:55:34;;;;;;;5.88;2.10;;;;;;;19.49;45.48;100400.94;4999080;28;20140;-68
2023/10/18 10:58:15;;;;;;;17.35;2.70;;;;;;;19.45;45.76;100397.72;4998891;28;20116;-67
2023/10/18 11:01:04;;;;;;;7.30;3.13;;;;;;;19.43;45.70;100394.41;4995915;28;20090;-69
2023/10/18 11:03:33;;;;;;;9.57;3.30;;;;;;;19.42;45.72;100389.25;4998526;28;20034;-69
2023/10/18 11:05:59;;;;;;;12.55;2.83;;;;;;;19.34;45.90;100374.13;4997389;28;20049;-67
2023/10/18 11:08:27;;;;;;;9.73;2.78;;;;;;;19.26;45.99;100371.38;4998142;28;20347;-68
2023/10/18 11:10:53;;;;;;;7.65;2.60;;;;;;;19.17;46.19;100363.34;4999010;28;20329;-67
2023/10/18 11:13:22;;;;;;;6.72;2.72;;;;;;;19.17;46.16;100367.78;4998358;28;20038;-68
2023/10/18 11:15:52;;;;;;;9.73;3.08;;;;;;;19.14;46.18;100362.78;5004560;28;20459;-67
2023/10/18 11:18:20;;;;;;;8.05;2.78;;;;;;;19.15;46.40;100375.00;4998127;28;20467;-68
2023/10/18 11:21:05;;;;;;;6.60;2.25;;;;;;;19.13;46.40;100347.91;4998055;28;20137;-69
2023/10/18 11:23:33;;;;;;;7.90;2.60;;;;;;;19.15;46.37;100343.31;4998009;28;20112;-68
2023/10/18 11:25:59;;;;;;;10.55;2.60;;;;;;;19.16;46.40;100345.81;4998198;28;20065;-67
2023/10/18 11:28:29;;;;;;;8.63;2.60;;;;;;;19.18;46.30;100335.94;4997449;28;20037;-68
2023/10/18 11:30:56;;;;;;;7.18;2.38;;;;;;;19.21;46.37;100326.88;4997703;28;20595;-69
2023/10/18 11:33:46;;;;;;;5.00;2.08;;;;;;;19.18;46.42;100333.31;4997235;28;20112;-67
2023/10/18 11:36:15;;;;;;;6.82;2.45;;;;;;;19.19;46.26;100326.22;4998451;28;20477;-67
2023/10/18 11:39:07;;;;;;;6.22;2.28;;;;;;;19.18;46.39;100319.25;4998767;28;20462;-67
2023/10/18 11:41:28;;;;;;;5.93;2.28;;;;;;;19.16;46.27;100316.75;4997362;28;20042;-68
2023/10/18 11:43:55;;;;;;;5.57;3.00;;;;;;;19.16;46.54;100305.38;4997535;28;20042;-68
2023/10/18 11:46:20;;;;;;;6.07;2.33;;;;;;;19.14;46.41;100294.94;4998425;28;20125;-67
2023/10/18 11:48:54;;;;;;;6.85;2.22;;;;;;;19.13;46.65;100290.63;4998162;28;20121;-69
2023/10/18 11:51:20;;;;;;;9.43;2.78;;;;;;;19.16;46.33;100271.84;4996786;28;20057;-69
2023/10/18 11:53:51;;;;;;;6.32;2.80;;;;;;;19.17;46.60;100273.53;4997460;28;20030;-68
2023/10/18 11:56:17;;;;;;;6.82;2.20;;;;;;;19.23;46.40;100269.44;4997092;28;20034;-66
2023/10/18 11:58:59;;;;;;;6.70;2.35;;;;;;;19.37;46.08;100263.69;4994548;28;20394;-66
2023/10/18 12:01:31;;;;;;;7.70;2.20;;;;;;;19.48;45.93;100273.22;4995168;28;20330;-67
2023/10/18 12:03:58;;;;;;;4.60;2.00;;;;;;;19.37;46.16;100268.13;4996166;28;20029;-66
2023/10/18 12:06:23;;;;;;;5.88;2.35;;;;;;;19.30;46.38;100259.97;4995952;28;20097;-67
2023/10/18 12:11:35;;;;;;;8.23;2.13;;;;;;;19.23;46.63;100243.03;5019806;28;20049;-65
2023/10/18 12:14:00;;;;;;;7.07;2.17;;;;;;;19.25;46.56;100238.47;4995400;28;20026;-64
2023/10/18 12:16:26;;;;;;;5.10;2.25;;;;;;;19.24;46.73;100220.09;4997057;28;20037;-65
2023/10/18 12:18:52;;;;;;;5.45;1.83;;;;;;;19.23;46.56;100232.47;4997112;28;20071;-66
2023/10/18 12:21:20;;;;;;;5.45;1.80;;;;;;;19.23;46.74;100215.78;4996663;28;20045;-66
2023/10/18 12:23:46;;;;;;;6.85;2.17;;;;;;;19.23;47.00;100218.44;4995289;28;20743;-65
2023/10/18 12:26:11;;;;;;;7.38;2.00;;;;;;;19.21;47.01;100208.00;5003647;28;20419;-69